Time;durP1;ratioP1;P1;durP2;ratioP2;P2;SDS_P1;SDS_P2;PMS_P1;PMS_P2;Temp;Humidity;BMP_temperature;BMP_pressure;BME280_temperature;BME280_humidity;BME280_pressure;Samples;Min_cycle;Max_cycle;Signal;HPM_P1;HPM_P2
2022/01/07 00:00:17;;;;;;;0.82;0.20;;;9.50;96.70;;;;;;5073873;28;20050;-71
2022/01/07 00:02:47;;;;;;;0.50;0.30;;;9.50;96.70;;;;;;5074215;28;20127;-72
2022/01/07 00:05:17;;;;;;;0.73;0.30;;;9.50;96.70;;;;;;5073313;28;20486;-71
2022/01/07 00:07:46;;;;;;;0.85;0.50;;;9.50;96.70;;;;;;5079108;28;20117;-71
2022/01/07 00:10:18;;;;;;;1.45;0.32;;;9.50;96.70;;;;;;5074087;28;20055;-72
2022/01/07 00:12:47;;;;;;;0.70;0.40;;;9.50;96.70;;;;;;5073605;28;20067;-71
2022/01/07 00:15:21;;;;;;;0.68;0.30;;;9.60;96.70;;;;;;5072119;28;20470;-73
2022/01/07 00:17:50;;;;;;;0.73;0.22;;;9.60;96.70;;;;;;5073518;28;20048;-73
2022/01/07 00:20:19;;;;;;;0.38;0.30;;;9.60;96.70;;;;;;5078755;28;20070;-73
2022/01/07 00:22:48;;;;;;;1.08;0.40;;;9.60;96.70;;;;;;5078343;28;20048;-73
2022/01/07 00:25:18;;;;;;;0.77;0.32;;;9.60;96.70;;;;;;5078816;28;20032;-72
2022/01/07 00:27:46;;;;;;;0.95;0.40;;;9.60;96.70;;;;;;5079737;28;20044;-72
2022/01/07 00:30:16;;;;;;;1.33;0.40;;;9.60;96.70;;;;;;5079895;28;20447;-73
2022/01/07 00:32:46;;;;;;;0.75;0.30;;;9.60;96.70;;;;;;5074073;28;20051;-73
2022/01/07 00:35:16;;;;;;;0.73;0.32;;;9.60;96.70;;;;;;5081388;28;20085;-73
2022/01/07 00:37:46;;;;;;;0.95;0.30;;;9.60;96.70;;;;;;5079613;28;20032;-72
2022/01/07 00:40:16;;;;;;;2.05;0.50;;;9.60;96.70;;;;;;5077657;28;20582;-72
2022/01/07 00:42:45;;;;;;;1.88;0.35;;;9.60;96.70;;;;;;5074311;28;20024;-73
2022/01/07 00:45:14;;;;;;;1.00;0.50;;;9.60;96.70;;;;;;5077595;28;20044;-73
2022/01/07 00:47:43;;;;;;;0.90;0.38;;;9.60;96.70;;;;;;5074137;28;20105;-72
2022/01/07 00:50:14;;;;;;;0.80;0.30;;;9.60;96.70;;;;;;5083980;28;20049;-73
2022/01/07 00:52:43;;;;;;;0.70;0.38;;;9.60;96.70;;;;;;5078199;28;20153;-73
2022/01/07 00:55:13;;;;;;;1.85;0.40;;;9.60;96.70;;;;;;5080389;28;20103;-73
2022/01/07 00:57:41;;;;;;;1.83;0.30;;;9.60;96.70;;;;;;5063698;28;20132;-72
2022/01/07 01:00:13;;;;;;;1.38;0.43;;;9.60;96.70;;;;;;5061868;28;20120;-73
2022/01/07 01:02:42;;;;;;;1.27;1.00;;;9.60;96.70;;;;;;5080575;28;20071;-72
2022/01/07 01:05:13;;;;;;;0.77;0.40;;;9.60;96.70;;;;;;5078477;28;20040;-73
2022/01/07 01:07:43;;;;;;;0.95;0.30;;;9.60;96.70;;;;;;5076221;28;20052;-72
2022/01/07 01:10:13;;;;;;;1.40;0.40;;;9.60;96.70;;;;;;5065128;28;20036;-72
2022/01/07 01:12:43;;;;;;;0.65;0.40;;;9.60;96.70;;;;;;5075656;28;20040;-73
2022/01/07 01:15:14;;;;;;;1.40;0.30;;;9.60;96.70;;;;;;5079304;28;20051;-73
2022/01/07 01:17:43;;;;;;;0.90;0.40;;;9.60;96.70;;;;;;5079020;28;20123;-74
2022/01/07 01:20:13;;;;;;;2.22;0.63;;;9.60;96.70;;;;;;5076995;28;20131;-73
2022/01/07 01:22:42;;;;;;;0.90;0.40;;;9.60;96.70;;;;;;5079214;28;20044;-73
2022/01/07 01:25:11;;;;;;;2.58;0.77;;;9.60;96.70;;;;;;5077484;28;20550;-72
2022/01/07 01:27:40;;;;;;;0.90;0.40;;;9.60;96.70;;;;;;5079908;28;20083;-73
2022/01/07 01:30:11;;;;;;;1.20;0.40;;;9.60;96.70;;;;;;5077597;28;20060;-73
2022/01/07 01:32:40;;;;;;;0.95;0.35;;;9.60;96.70;;;;;;5094202;28;20405;-73
2022/01/07 01:35:09;;;;;;;0.90;0.47;;;9.60;96.70;;;;;;5080657;28;20043;-73
2022/01/07 01:37:39;;;;;;;1.65;0.40;;;9.60;96.70;;;;;;5078436;28;20485;-73
2022/01/07 01:40:10;;;;;;;1.27;0.50;;;9.60;96.70;;;;;;5077518;28;20075;-73
2022/01/07 01:42:38;;;;;;;2.42;0.70;;;9.60;96.70;;;;;;5075059;28;20510;-73
2022/01/07 01:45:09;;;;;;;2.55;0.50;;;9.50;96.70;;;;;;5074962;28;20040;-73
2022/01/07 01:47:38;;;;;;;0.63;0.43;;;9.60;96.70;;;;;;5079502;28;20094;-73
2022/01/07 01:50:08;;;;;;;0.68;0.45;;;9.60;96.70;;;;;;5077789;28;20531;-73
2022/01/07 01:52:45;;;;;;;1.65;0.40;;;9.60;96.70;;;;;;5076334;28;20059;-73
2022/01/07 01:55:15;;;;;;;0.55;0.28;;;9.60;96.70;;;;;;5076568;28;20075;-73
2022/01/07 01:57:44;;;;;;;1.73;0.50;;;9.60;96.70;;;;;;5077764;28;20531;-73
2022/01/07 02:00:14;;;;;;;0.93;0.40;;;9.60;96.70;;;;;;5079153;28;20135;-73
2022/01/07 02:02:42;;;;;;;2.58;0.30;;;9.50;96.70;;;;;;5080844;28;20334;-73
2022/01/07 02:05:11;;;;;;;1.02;0.47;;;9.50;96.70;;;;;;5076031;28;20070;-73
2022/01/07 02:07:41;;;;;;;1.50;0.32;;;9.60;96.70;;;;;;5078394;28;20047;-73
2022/01/07 02:10:13;;;;;;;0.90;0.30;;;9.60;96.70;;;;;;5078120;28;20062;-72
2022/01/07 02:12:42;;;;;;;2.90;0.50;;;9.60;96.70;;;;;;5075640;28;20450;-72
2022/01/07 02:15:13;;;;;;;0.47;0.30;;;9.60;96.70;;;;;;5077265;28;20089;-72
2022/01/07 02:17:43;;;;;;;1.52;0.50;;;9.50;96.70;;;;;;5074937;28;20039;-72
2022/01/07 02:20:15;;;;;;;1.40;0.45;;;9.50;96.70;;;;;;5075940;28;20109;-72
2022/01/07 02:22:44;;;;;;;0.80;0.50;;;9.50;96.70;;;;;;5079906;28;20074;-72
2022/01/07 02:25:13;;;;;;;1.27;0.57;;;9.50;96.70;;;;;;5074470;28;20040;-72
2022/01/07 02:27:44;;;;;;;0.90;0.40;;;9.50;96.70;;;;;;5079331;28;20044;-72
2022/01/07 02:30:16;;;;;;;1.23;0.52;;;9.50;96.70;;;;;;5080043;28;20047;-72
2022/01/07 02:32:45;;;;;;;0.70;0.38;;;9.50;96.70;;;;;;5077748;28;20470;-72
2022/01/07 02:35:17;;;;;;;2.80;0.50;;;9.50;96.70;;;;;;5076353;28;20044;-72
2022/01/07 02:37:45;;;;;;;2.47;0.63;;;9.50;96.70;;;;;;5075913;28;20574;-72
2022/01/07 02:40:14;;;;;;;0.47;0.38;;;9.50;96.70;;;;;;5063897;28;20072;-72
2022/01/07 02:42:43;;;;;;;1.70;0.50;;;9.40;96.70;;;;;;5078901;28;20047;-71
2022/01/07 02:45:13;;;;;;;1.50;0.60;;;9.40;96.70;;;;;;5078706;28;20074;-72
2022/01/07 02:47:55;;;;;;;0.75;0.45;;;9.40;96.70;;;;;;5073809;28;20123;-72
2022/01/07 02:50:42;;;;;;;1.85;0.50;;;9.40;96.70;;;;;;5061294;28;20529;-71
2022/01/07 02:53:15;;;;;;;1.65;0.43;;;9.40;96.70;;;;;;5060231;28;20048;-71
2022/01/07 02:55:45;;;;;;;1.70;0.50;;;9.40;96.70;;;;;;5074861;28;20051;-71
2022/01/07 02:58:17;;;;;;;0.65;0.50;;;9.40;96.70;;;;;;5074418;28;20109;-72
2022/01/07 03:00:47;;;;;;;1.42;0.50;;;9.40;96.70;;;;;;5076562;28;20044;-72
2022/01/07 03:03:15;;;;;;;1.70;0.30;;;9.40;96.70;;;;;;5074707;28;20043;-71
2022/01/07 03:05:45;;;;;;;1.02;0.45;;;9.40;96.70;;;;;;5077636;28;20056;-72
2022/01/07 03:08:14;;;;;;;0.80;0.47;;;9.30;96.70;;;;;;5076013;28;20048;-71
2022/01/07 03:10:42;;;;;;;1.45;0.50;;;9.30;96.70;;;;;;5075273;28;20052;-72
2022/01/07 03:13:11;;;;;;;1.67;0.50;;;9.30;96.70;;;;;;5077459;28;20040;-72
2022/01/07 03:15:40;;;;;;;1.27;0.55;;;9.30;96.70;;;;;;5078232;28;20054;-72
2022/01/07 03:18:09;;;;;;;1.00;0.40;;;9.30;96.70;;;;;;5075573;28;20615;-72
2022/01/07 03:20:41;;;;;;;1.35;0.93;;;9.30;96.70;;;;;;5075740;28;20040;-71
2022/01/07 03:23:13;;;;;;;1.30;0.40;;;9.30;96.70;;;;;;5073778;28;20097;-72
2022/01/07 03:25:44;;;;;;;1.73;0.50;;;9.30;96.70;;;;;;5075447;28;20036;-72
2022/01/07 03:28:13;;;;;;;1.55;0.40;;;9.20;96.70;;;;;;5079259;28;20089;-71
2022/01/07 03:30:41;;;;;;;0.88;0.30;;;9.20;96.70;;;;;;5070340;28;20143;-72
2022/01/07 03:33:10;;;;;;;1.10;0.30;;;9.20;96.70;;;;;;5069515;28;20431;-72
2022/01/07 03:35:39;;;;;;;1.00;0.43;;;9.20;96.70;;;;;;5074193;28;20062;-72
2022/01/07 03:38:08;;;;;;;1.98;0.60;;;9.10;96.70;;;;;;5077692;28;20306;-72
2022/01/07 03:40:38;;;;;;;1.52;0.30;;;9.10;96.70;;;;;;5073586;28;20040;-72
2022/01/07 03:43:08;;;;;;;1.48;0.40;;;9.00;96.70;;;;;;5075623;28;20032;-72
2022/01/07 03:45:36;;;;;;;1.25;0.60;;;9.00;96.70;;;;;;5075456;28;20032;-71
2022/01/07 03:48:05;;;;;;;2.20;0.50;;;9.00;96.70;;;;;;5075955;28;20042;-72
2022/01/07 03:50:34;;;;;;;2.55;0.52;;;9.00;96.70;;;;;;5071226;28;20036;-72
2022/01/07 03:53:03;;;;;;;1.33;0.50;;;9.00;96.70;;;;;;5072798;28;20092;-72
2022/01/07 03:55:32;;;;;;;1.83;0.38;;;9.00;96.70;;;;;;5075929;28;20042;-72
2022/01/07 03:58:02;;;;;;;1.23;0.38;;;8.90;96.70;;;;;;5076889;28;20451;-72
2022/01/07 04:00:34;;;;;;;0.80;0.40;;;8.90;96.70;;;;;;5079085;28;20121;-72
2022/01/07 04:03:07;;;;;;;1.40;0.60;;;8.90;96.70;;;;;;5079321;28;20047;-72
2022/01/07 04:05:36;;;;;;;1.20;0.30;;;8.90;96.70;;;;;;5079739;28;20737;-71
2022/01/07 04:08:05;;;;;;;1.77;0.40;;;8.90;96.70;;;;;;5079837;28;20543;-71
2022/01/07 04:10:34;;;;;;;1.63;0.43;;;8.90;96.70;;;;;;5079753;28;20109;-72
2022/01/07 04:13:06;;;;;;;1.40;0.60;;;8.80;96.70;;;;;;5081877;28;20061;-71
2022/01/07 04:15:34;;;;;;;4.05;0.50;;;8.80;96.70;;;;;;5075258;28;20072;-71
2022/01/07 04:18:03;;;;;;;1.13;0.50;;;8.80;96.70;;;;;;5077217;28;20044;-72
2022/01/07 04:20:34;;;;;;;0.93;0.50;;;8.80;96.70;;;;;;5078400;28;20040;-71
2022/01/07 04:23:04;;;;;;;1.40;0.57;;;8.80;96.70;;;;;;5081186;28;20048;-71
2022/01/07 04:25:33;;;;;;;2.13;0.68;;;8.70;96.70;;;;;;5076960;28;20052;-72
2022/01/07 04:28:05;;;;;;;2.75;0.70;;;8.80;96.70;;;;;;5079728;28;20036;-72
2022/01/07 04:30:35;;;;;;;1.98;0.60;;;8.80;96.70;;;;;;5077403;28;20301;-71
2022/01/07 04:33:05;;;;;;;3.50;1.40;;;8.70;96.70;;;;;;5079837;28;20106;-72
2022/01/07 04:35:35;;;;;;;3.97;1.95;;;8.70;96.70;;;;;;5078296;28;20044;-72
2022/01/07 04:38:06;;;;;;;4.10;2.17;;;8.70;96.70;;;;;;5094100;27;20421;-73
2022/01/07 04:40:34;;;;;;;3.38;1.75;;;8.70;96.70;;;;;;5078813;28;20052;-72
2022/01/07 04:43:06;;;;;;;3.72;1.63;;;8.70;96.70;;;;;;5064334;28;20060;-72
2022/01/07 04:45:35;;;;;;;3.42;2.00;;;8.60;96.70;;;;;;5075121;28;20121;-72
2022/01/07 04:48:04;;;;;;;5.38;2.35;;;8.60;96.70;;;;;;5079046;28;20035;-72
2022/01/07 04:50:33;;;;;;;5.00;3.05;;;8.60;96.70;;;;;;5078856;28;20919;-72
2022/01/07 04:53:02;;;;;;;4.57;1.70;;;8.60;96.70;;;;;;5077804;28;20213;-73
2022/01/07 04:55:37;;;;;;;2.15;1.20;;;8.60;96.70;;;;;;5081980;28;20040;-72
2022/01/07 04:58:09;;;;;;;2.83;1.48;;;8.50;96.70;;;;;;5080405;28;20468;-72
2022/01/07 05:00:39;;;;;;;2.50;1.33;;;8.50;96.70;;;;;;5074366;28;20040;-72
2022/01/07 05:03:07;;;;;;;10.35;6.70;;;8.50;96.70;;;;;;5074528;28;20049;-72
2022/01/07 05:05:36;;;;;;;4.60;2.20;;;8.50;96.70;;;;;;5073562;28;20032;-72
2022/01/07 05:08:05;;;;;;;4.10;2.47;;;8.50;96.70;;;;;;5079589;28;20068;-72
2022/01/07 05:10:33;;;;;;;4.90;2.10;;;8.50;96.70;;;;;;5078468;28;20040;-72
2022/01/07 05:13:01;;;;;;;6.40;3.25;;;8.50;96.70;;;;;;5076150;28;20064;-72
2022/01/07 05:15:31;;;;;;;5.88;2.40;;;8.50;96.70;;;;;;5062388;28;20135;-73
2022/01/07 05:18:00;;;;;;;3.10;1.55;;;8.50;96.70;;;;;;5079296;28;20052;-72
2022/01/07 05:20:28;;;;;;;1.95;0.80;;;8.50;96.70;;;;;;5072745;28;20116;-72
2022/01/07 05:22:57;;;;;;;1.15;0.70;;;8.50;96.70;;;;;;5061850;28;20067;-72
2022/01/07 05:25:26;;;;;;;1.95;0.73;;;8.50;96.70;;;;;;5075203;28;20126;-73
2022/01/07 05:27:55;;;;;;;2.10;0.50;;;8.50;96.70;;;;;;5095058;27;20118;-72
2022/01/07 05:30:23;;;;;;;2.50;0.82;;;8.50;96.70;;;;;;5064577;28;20427;-72
2022/01/07 05:32:53;;;;;;;1.15;0.50;;;8.50;96.70;;;;;;5076235;28;20120;-73
2022/01/07 05:35:25;;;;;;;1.92;0.55;;;8.50;96.70;;;;;;5076852;28;20050;-72
2022/01/07 05:37:54;;;;;;;0.85;0.40;;;8.50;96.70;;;;;;5076367;28;20051;-72
2022/01/07 05:40:22;;;;;;;0.65;0.43;;;8.50;96.70;;;;;;5072584;28;20594;-72
2022/01/07 05:42:51;;;;;;;1.48;0.60;;;8.50;96.70;;;;;;5080541;28;20107;-72
2022/01/07 05:45:19;;;;;;;2.15;0.55;;;8.50;96.70;;;;;;5062812;28;20464;-72
2022/01/07 05:47:47;;;;;;;1.52;0.60;;;8.60;96.70;;;;;;5078989;28;20067;-72
2022/01/07 05:50:17;;;;;;;3.95;0.90;;;8.50;96.70;;;;;;5077569;28;20294;-72
2022/01/07 05:52:46;;;;;;;1.38;0.45;;;8.50;96.70;;;;;;5073512;28;20520;-72
2022/01/07 05:55:14;;;;;;;1.08;0.60;;;8.50;96.70;;;;;;5072338;28;20036;-72
2022/01/07 05:57:43;;;;;;;2.83;0.68;;;8.40;96.70;;;;;;5074908;28;20046;-72
2022/01/07 06:00:12;;;;;;;1.70;0.70;;;8.40;96.70;;;;;;5079403;28;20390;-72
2022/01/07 06:02:40;;;;;;;0.70;0.40;;;8.50;96.70;;;;;;5078514;28;20118;-71
2022/01/07 06:05:09;;;;;;;2.03;0.50;;;8.50;96.70;;;;;;5075236;28;20039;-71
2022/01/07 06:07:39;;;;;;;1.85;0.50;;;8.50;96.70;;;;;;5074007;28;20441;-72
2022/01/07 06:10:09;;;;;;;2.35;0.60;;;8.40;96.70;;;;;;5072801;28;20045;-71
2022/01/07 06:12:38;;;;;;;2.15;0.50;;;8.40;96.70;;;;;;5073847;28;20086;-71
2022/01/07 06:15:08;;;;;;;1.80;0.60;;;8.40;96.70;;;;;;5076396;28;20072;-71
2022/01/07 06:17:36;;;;;;;1.73;0.70;;;8.30;96.70;;;;;;5079617;28;20036;-71
2022/01/07 06:20:06;;;;;;;1.25;0.50;;;8.20;96.70;;;;;;5073790;28;20429;-72
2022/01/07 06:22:35;;;;;;;2.40;0.50;;;8.20;96.70;;;;;;5077203;28;20044;-71
2022/01/07 06:25:06;;;;;;;1.52;0.52;;;8.30;96.70;;;;;;5060487;28;20563;-71
2022/01/07 06:27:35;;;;;;;1.35;0.55;;;8.20;96.70;;;;;;5077849;28;20153;-71
2022/01/07 06:30:04;;;;;;;1.67;0.70;;;8.20;96.70;;;;;;5078193;28;20035;-72
2022/01/07 06:32:33;;;;;;;1.05;0.43;;;8.20;96.70;;;;;;5096564;28;20498;-71
2022/01/07 06:35:02;;;;;;;2.30;0.47;;;8.20;96.70;;;;;;5076451;28;20155;-71
2022/01/07 06:37:30;;;;;;;1.08;0.63;;;8.20;96.70;;;;;;5077244;28;20058;-71
2022/01/07 06:39:59;;;;;;;1.60;0.47;;;8.10;96.70;;;;;;5074187;28;20056;-71
2022/01/07 06:42:29;;;;;;;0.90;0.70;;;8.10;96.70;;;;;;5074322;28;20553;-71
2022/01/07 06:44:58;;;;;;;1.20;0.47;;;8.10;96.70;;;;;;5074194;28;20488;-71
2022/01/07 06:47:26;;;;;;;4.70;0.60;;;8.10;96.70;;;;;;5076287;28;20032;-71
2022/01/07 06:49:55;;;;;;;1.10;0.57;;;8.20;96.70;;;;;;5080341;28;20051;-71
2022/01/07 06:52:23;;;;;;;1.27;0.52;;;8.20;96.70;;;;;;5075088;28;20036;-71
2022/01/07 06:54:52;;;;;;;1.17;0.60;;;8.10;96.70;;;;;;5077444;28;20321;-71
2022/01/07 06:57:20;;;;;;;3.65;1.23;;;8.20;96.70;;;;;;5076981;28;20059;-71
2022/01/07 06:59:50;;;;;;;2.58;1.00;;;8.20;96.70;;;;;;5077324;28;20119;-71
2022/01/07 07:02:19;;;;;;;1.88;0.98;;;8.20;96.70;;;;;;5074510;28;20036;-72
2022/01/07 07:04:48;;;;;;;2.17;0.85;;;8.20;96.70;;;;;;5076787;28;20079;-71
2022/01/07 07:07:16;;;;;;;3.10;1.00;;;8.20;96.70;;;;;;5077515;28;20098;-71
2022/01/07 07:09:45;;;;;;;3.72;2.00;;;8.20;96.70;;;;;;5080312;28;20123;-71
2022/01/07 07:12:13;;;;;;;2.70;1.30;;;8.10;96.70;;;;;;5075043;28;20059;-71
2022/01/07 07:14:42;;;;;;;2.55;1.08;;;8.10;96.70;;;;;;5078405;28;20226;-71
2022/01/07 07:17:14;;;;;;;2.45;1.00;;;8.10;96.70;;;;;;5075914;28;20046;-71
2022/01/07 07:19:43;;;;;;;3.42;1.30;;;8.10;96.70;;;;;;5074306;28;20048;-71
2022/01/07 07:22:11;;;;;;;3.00;1.20;;;8.10;96.70;;;;;;5075225;28;20043;-71
2022/01/07 07:24:39;;;;;;;1.67;0.90;;;8.10;96.70;;;;;;5079040;28;20072;-71
2022/01/07 07:27:08;;;;;;;3.50;1.15;;;8.20;96.70;;;;;;5074476;28;20036;-71
2022/01/07 07:29:36;;;;;;;2.83;1.20;;;8.20;96.70;;;;;;5075277;28;20049;-71
2022/01/07 07:32:09;;;;;;;1.90;0.88;;;8.20;96.70;;;;;;5075231;28;20036;-71
2022/01/07 07:37:10;;;;;;;1.80;0.75;;;8.30;96.70;;;;;;5077685;28;20040;-71
2022/01/07 07:39:38;;;;;;;1.08;0.85;;;8.30;96.70;;;;;;5076344;28;20579;-71
2022/01/07 07:42:07;;;;;;;2.88;1.00;;;8.30;96.70;;;;;;5078287;28;20489;-71
2022/01/07 07:44:38;;;;;;;2.00;1.08;;;8.40;96.70;;;;;;5073792;28;20113;-71
2022/01/07 07:47:07;;;;;;;3.10;0.90;;;8.40;96.70;;;;;;5074694;28;20036;-71
2022/01/07 07:49:35;;;;;;;1.35;0.75;;;8.40;96.70;;;;;;5061712;28;20044;-71
2022/01/07 07:52:06;;;;;;;2.60;0.68;;;8.40;96.70;;;;;;5075089;28;20040;-71
2022/01/07 07:54:35;;;;;;;3.15;0.75;;;8.50;96.70;;;;;;5077542;28;20070;-71
2022/01/07 07:57:04;;;;;;;2.53;0.70;;;8.50;96.70;;;;;;5077202;28;20134;-71
2022/01/07 07:59:32;;;;;;;2.35;0.68;;;8.50;96.70;;;;;;5075177;28;20892;-72
2022/01/07 08:02:02;;;;;;;4.18;0.80;;;8.60;96.70;;;;;;5078572;28;20545;-72
2022/01/07 08:04:31;;;;;;;1.42;0.60;;;8.60;96.70;;;;;;5077145;28;20040;-71
2022/01/07 08:06:59;;;;;;;1.23;0.40;;;8.70;96.70;;;;;;5076002;28;20051;-71
2022/01/07 08:09:33;;;;;;;0.82;0.40;;;8.80;96.70;;;;;;5076825;28;20055;-71
2022/01/07 08:12:16;;;;;;;1.75;0.60;;;8.80;96.70;;;;;;5070282;28;20075;-72
2022/01/07 08:17:32;;;;;;;2.30;0.68;;;8.90;96.70;;;;;;5073879;28;20059;-71
2022/01/07 08:20:00;;;;;;;1.90;0.80;;;8.90;96.70;;;;;;5072806;28;20040;-71
2022/01/07 08:22:29;;;;;;;1.33;0.60;;;9.00;96.70;;;;;;5076300;28;20049;-71
2022/01/07 08:24:59;;;;;;;1.15;0.60;;;9.00;96.70;;;;;;5074587;28;20032;-72
2022/01/07 08:27:28;;;;;;;3.05;0.55;;;9.00;96.70;;;;;;5077968;28;20492;-71
2022/01/07 08:30:12;;;;;;;1.98;0.73;;;9.00;96.70;;;;;;5076936;28;20047;-71
2022/01/07 08:35:29;;;;;;;1.65;0.73;;;9.10;96.70;;;;;;5078009;28;20121;-71
2022/01/07 08:37:57;;;;;;;1.75;0.90;;;9.10;96.70;;;;;;5061438;28;20044;-71
2022/01/07 08:40:28;;;;;;;1.08;0.60;;;9.20;96.70;;;;;;5071073;28;20076;-71
2022/01/07 08:42:56;;;;;;;1.65;0.65;;;9.20;96.70;;;;;;5079475;28;20040;-71
2022/01/07 08:45:25;;;;;;;1.35;0.63;;;9.20;96.70;;;;;;5079770;28;20063;-71
2022/01/07 08:47:54;;;;;;;2.22;0.65;;;9.30;96.70;;;;;;5077485;28;20468;-71
2022/01/07 08:50:22;;;;;;;1.33;0.47;;;9.30;96.70;;;;;;5077428;28;20040;-71
2022/01/07 08:52:52;;;;;;;2.42;0.77;;;9.30;96.70;;;;;;5079917;28;20058;-71
2022/01/07 08:55:21;;;;;;;2.00;0.60;;;9.40;96.70;;;;;;5081753;28;20036;-71
2022/01/07 08:57:51;;;;;;;1.98;0.70;;;9.50;96.70;;;;;;5079055;28;20055;-71
2022/01/07 09:00:19;;;;;;;3.10;0.52;;;9.50;96.70;;;;;;5079510;28;20055;-71
2022/01/07 09:02:47;;;;;;;1.45;0.50;;;9.60;96.70;;;;;;5077188;28;20044;-73
2022/01/07 09:05:16;;;;;;;2.15;0.50;;;9.70;96.70;;;;;;5080360;28;20133;-72
2022/01/07 09:07:45;;;;;;;0.88;0.32;;;9.80;96.70;;;;;;5075653;28;20073;-72
2022/01/07 09:10:13;;;;;;;0.80;0.60;;;9.80;96.70;;;;;;5056790;28;20042;-73
2022/01/07 09:12:42;;;;;;;1.33;0.40;;;9.90;96.70;;;;;;5077870;28;20050;-72
2022/01/07 09:15:15;;;;;;;2.13;0.75;;;10.00;96.70;;;;;;5079013;28;20040;-72
2022/01/07 09:17:44;;;;;;;1.10;0.52;;;10.00;96.70;;;;;;5073242;28;20052;-72
2022/01/07 09:20:13;;;;;;;0.63;0.40;;;10.10;96.70;;;;;;5078221;28;20458;-72
2022/01/07 09:22:41;;;;;;;1.05;0.47;;;10.10;96.70;;;;;;5078351;28;20047;-72
2022/01/07 09:25:10;;;;;;;1.67;0.43;;;10.20;96.70;;;;;;5076085;28;20133;-72
2022/01/07 09:27:40;;;;;;;2.50;0.43;;;10.20;96.70;;;;;;5077417;28;20044;-72
2022/01/07 09:30:11;;;;;;;4.38;1.20;;;10.30;96.70;;;;;;5079769;28;20042;-72
2022/01/07 09:32:40;;;;;;;1.05;0.40;;;10.30;96.70;;;;;;5075479;28;20738;-73
2022/01/07 09:35:11;;;;;;;0.80;0.40;;;10.40;96.70;;;;;;5073822;28;20524;-73
2022/01/07 09:37:40;;;;;;;1.17;0.40;;;10.50;96.70;;;;;;5075502;28;20155;-72
2022/01/07 09:40:10;;;;;;;1.30;0.60;;;10.50;96.70;;;;;;5071200;28;20163;-72
2022/01/07 09:42:39;;;;;;;1.95;0.55;;;10.50;96.70;;;;;;5081752;28;20051;-74
2022/01/07 09:45:08;;;;;;;1.25;0.40;;;10.60;96.70;;;;;;5077850;28;20071;-72
2022/01/07 09:47:40;;;;;;;1.80;0.60;;;10.70;96.70;;;;;;5076256;28;20452;-73
2022/01/07 09:50:12;;;;;;;2.42;0.40;;;10.80;96.70;;;;;;5060956;28;20052;-74
2022/01/07 09:52:41;;;;;;;0.90;0.40;;;10.80;96.70;;;;;;5058206;28;20097;-74
2022/01/07 09:55:10;;;;;;;0.80;0.40;;;10.80;96.70;;;;;;5076214;28;20040;-72
2022/01/07 09:57:38;;;;;;;2.65;0.80;;;10.90;96.70;;;;;;5077907;28;20327;-73
2022/01/07 10:00:08;;;;;;;0.80;0.40;;;10.90;96.70;;;;;;5077668;28;20408;-72
2022/01/07 10:02:59;;;;;;;0.80;0.40;;;10.90;96.70;;;;;;5077023;28;20051;-73
2022/01/07 10:05:29;;;;;;;1.67;0.55;;;11.00;96.70;;;;;;5077212;28;20126;-72
2022/01/07 10:08:12;;;;;;;1.23;0.50;;;11.00;96.70;;;;;;5077394;28;20036;-73
2022/01/07 10:10:40;;;;;;;1.75;0.50;;;11.10;96.70;;;;;;5075185;28;20055;-72
2022/01/07 10:13:09;;;;;;;4.22;0.50;;;11.10;96.70;;;;;;5073807;28;20040;-73
2022/01/07 10:15:39;;;;;;;3.17;0.52;;;11.20;96.70;;;;;;5078859;28;20055;-73
2022/01/07 10:18:12;;;;;;;1.65;0.40;;;11.20;96.70;;;;;;5076081;28;20044;-72
2022/01/07 10:20:42;;;;;;;0.77;0.40;;;11.30;96.70;;;;;;5076976;28;20521;-73
2022/01/07 10:23:17;;;;;;;1.23;0.40;;;11.30;96.70;;;;;;5075689;28;20456;-74
2022/01/07 10:25:47;;;;;;;2.03;0.50;;;11.40;96.70;;;;;;5074832;28;20620;-73
2022/01/07 10:28:18;;;;;;;1.45;0.50;;;11.40;96.70;;;;;;5074164;28;20051;-73
2022/01/07 10:30:48;;;;;;;1.83;0.65;;;11.40;96.70;;;;;;5075417;28;20044;-73
2022/01/07 10:33:21;;;;;;;2.60;0.73;;;11.50;96.70;;;;;;5075536;28;20040;-73
2022/01/07 10:35:52;;;;;;;2.72;0.93;;;11.60;96.70;;;;;;5069785;28;20037;-73
2022/01/07 10:38:22;;;;;;;2.45;0.80;;;11.60;96.70;;;;;;5074111;28;20428;-73
2022/01/07 10:40:52;;;;;;;2.28;0.75;;;11.70;96.70;;;;;;5075336;28;20147;-73
2022/01/07 10:43:24;;;;;;;1.13;0.52;;;11.80;96.70;;;;;;5079995;28;20093;-73
2022/01/07 10:45:54;;;;;;;2.10;0.55;;;11.90;96.70;;;;;;5062542;28;20047;-73
2022/01/07 10:48:36;;;;;;;2.47;1.02;;;11.90;96.70;;;;;;5076928;28;20110;-73
2022/01/07 10:51:07;;;;;;;2.40;0.50;;;12.00;96.70;;;;;;5077708;28;20097;-73
2022/01/07 10:53:37;;;;;;;1.25;0.68;;;12.10;96.70;;;;;;5073166;28;20075;-74
2022/01/07 10:56:09;;;;;;;2.80;0.70;;;12.10;96.70;;;;;;5073270;28;20474;-73
2022/01/07 10:59:04;;;;;;;3.10;0.85;;;12.20;96.70;;;;;;5074467;28;20044;-74
2022/01/07 11:01:38;;;;;;;1.48;0.68;;;12.20;96.70;;;;;;5074259;28;20074;-75
2022/01/07 11:04:11;;;;;;;1.30;0.50;;;12.30;96.70;;;;;;5077039;28;20053;-73
2022/01/07 11:06:41;;;;;;;3.00;0.45;;;12.40;96.70;;;;;;5095498;28;20102;-74
2022/01/07 11:09:10;;;;;;;1.17;0.63;;;12.50;96.70;;;;;;5075187;28;20036;-73
2022/01/07 11:11:51;;;;;;;1.90;0.50;;;12.60;96.70;;;;;;5075921;28;20071;-73
2022/01/07 11:14:22;;;;;;;1.23;0.52;;;12.60;96.70;;;;;;5075253;28;20118;-72
2022/01/07 11:16:51;;;;;;;1.45;0.50;;;12.70;96.70;;;;;;5075114;28;20036;-73
2022/01/07 11:19:31;;;;;;;0.90;0.50;;;12.70;96.70;;;;;;5078207;28;20119;-73
2022/01/07 11:22:00;;;;;;;2.38;0.70;;;12.80;96.70;;;;;;5074036;28;20051;-73
2022/01/07 11:24:36;;;;;;;2.50;0.80;;;12.90;96.70;;;;;;5078725;28;20055;-73
2022/01/07 11:27:06;;;;;;;1.65;0.50;;;13.00;96.70;;;;;;5075902;28;20048;-73
2022/01/07 11:29:49;;;;;;;2.78;1.23;;;13.00;96.70;;;;;;5076669;28;20499;-73
2022/01/07 11:32:39;;;;;;;3.00;1.10;;;13.10;96.70;;;;;;5075701;28;20148;-73
2022/01/07 11:35:45;;;;;;;2.22;1.20;;;13.00;96.70;;;;;;5072456;28;20042;-73
2022/01/07 11:38:30;;;;;;;2.67;1.33;;;13.10;96.70;;;;;;5076079;28;20077;-72
2022/01/07 11:40:59;;;;;;;5.47;1.20;;;13.30;96.70;;;;;;5075971;28;20040;-73
2022/01/07 11:43:37;;;;;;;1.88;0.80;;;13.30;96.70;;;;;;5077990;28;20044;-73
2022/01/07 11:46:30;;;;;;;1.77;0.70;;;13.30;96.70;;;;;;5076219;28;20144;-72
2022/01/07 11:49:00;;;;;;;1.60;0.73;;;13.40;96.70;;;;;;5078293;28;20062;-73
2022/01/07 11:51:42;;;;;;;1.83;0.60;;;13.50;96.70;;;;;;5059424;28;20479;-73
2022/01/07 11:54:20;;;;;;;1.23;0.60;;;13.60;96.70;;;;;;5073703;28;20055;-73
2022/01/07 11:56:49;;;;;;;1.85;0.80;;;13.60;96.70;;;;;;5074512;28;20099;-73
2022/01/07 11:59:20;;;;;;;1.15;0.47;;;13.70;96.70;;;;;;5075874;28;20051;-72
2022/01/07 12:02:04;;;;;;;1.73;0.93;;;13.80;96.70;;;;;;5075165;28;20036;-73
2022/01/07 12:04:34;;;;;;;2.22;0.88;;;13.90;96.70;;;;;;5073716;28;20452;-74
2022/01/07 12:07:05;;;;;;;3.03;0.68;;;13.90;96.70;;;;;;5075216;28;20048;-73
2022/01/07 12:09:37;;;;;;;0.90;0.55;;;14.00;96.70;;;;;;5077253;28;20688;-73
2022/01/07 12:12:11;;;;;;;1.15;0.52;;;13.90;96.70;;;;;;5077678;28;20333;-73
2022/01/07 12:14:45;;;;;;;2.20;0.90;;;13.90;96.50;;;;;;5073727;28;20488;-73
2022/01/07 12:17:16;;;;;;;1.40;0.50;;;13.90;95.50;;;;;;5079653;28;20046;-73
2022/01/07 12:20:28;;;;;;;1.40;0.60;;;14.10;95.80;;;;;;5077478;28;20550;-73
2022/01/07 12:22:56;;;;;;;1.45;0.63;;;14.20;95.00;;;;;;5064667;28;20513;-73
2022/01/07 12:25:25;;;;;;;1.20;0.50;;;14.20;95.00;;;;;;5081855;28;21110;-73
2022/01/07 12:28:02;;;;;;;1.50;0.50;;;14.30;95.50;;;;;;5080905;28;20079;-73
2022/01/07 12:30:31;;;;;;;0.85;0.50;;;14.30;95.70;;;;;;5077773;28;20125;-73
2022/01/07 12:33:07;;;;;;;1.48;0.40;;;14.30;95.50;;;;;;5079549;28;20083;-73
2022/01/07 12:35:35;;;;;;;1.55;0.63;;;14.40;94.60;;;;;;5080894;28;20485;-73
2022/01/07 12:38:14;;;;;;;1.30;0.50;;;14.40;94.80;;;;;;5082507;28;20040;-73
2022/01/07 12:40:51;;;;;;;1.98;0.40;;;14.40;93.90;;;;;;5061148;28;20570;-73
2022/01/07 12:43:21;;;;;;;1.90;0.50;;;14.40;94.60;;;;;;5082932;28;20044;-73
2022/01/07 12:46:00;;;;;;;0.73;0.52;;;14.50;94.60;;;;;;5077374;28;20282;-73
2022/01/07 12:48:38;;;;;;;2.88;0.60;;;14.50;94.30;;;;;;5078047;28;20044;-73
2022/01/07 12:51:07;;;;;;;1.55;0.40;;;14.70;94.20;;;;;;5076179;28;20446;-73
2022/01/07 12:53:35;;;;;;;1.75;0.40;;;14.70;92.20;;;;;;5079573;28;20043;-73
2022/01/07 12:56:25;;;;;;;2.25;0.80;;;14.80;93.40;;;;;;5081949;28;20040;-74
2022/01/07 12:58:53;;;;;;;1.23;0.75;;;14.70;93.70;;;;;;5071688;28;20045;-73
2022/01/07 13:01:26;;;;;;;3.15;0.50;;;14.60;93.10;;;;;;5078005;28;20082;-73
2022/01/07 13:04:06;;;;;;;0.90;0.50;;;14.60;92.90;;;;;;5081566;28;20428;-74
2022/01/07 13:06:45;;;;;;;2.00;0.70;;;14.70;93.90;;;;;;5081964;28;20078;-74
2022/01/07 13:09:18;;;;;;;1.13;0.63;;;14.90;94.20;;;;;;5078921;28;20516;-73
2022/01/07 13:11:49;;;;;;;1.08;0.50;;;15.00;94.20;;;;;;5077172;28;20059;-74
2022/01/07 13:14:20;;;;;;;2.10;0.68;;;14.90;93.00;;;;;;5075938;28;20044;-73
2022/01/07 13:16:53;;;;;;;2.05;0.70;;;14.80;94.70;;;;;;5062556;28;20078;-73
2022/01/07 13:19:22;;;;;;;1.20;0.50;;;15.00;94.40;;;;;;5077757;28;20102;-73